Accueil
METAR-TAF:

METAR-TAF

Aéroports :

Berlin, Allemagne

Aéroport de Berlin-Tegel

latitude: 52-34N, longitude: 013-19E, altitude: 37 m

Observation

Le bulletin a été fait il y a 6 minutes, à 06:50 UTC
Vent 2 kt de direction variable
Température 15°C
Humidité 63%
Pression 1014 hPa
Visibilité 10 km ou plus
pas de nuages en-dessous de 1500 mètres et pas de cumulonimbus.

METAR: EDDT 270650Z VRB02KT CAVOK 15/08 Q1014 NOSIG

Heure: 08:56 (06:56 UTC)

Prévision

Le bulletin a été fait il y a 1 heure et 56 minutes, à 05:00 UTC
Prévision valable du 27 à 06 UTC au 28 à 06 UTC
Vent 3 kt de nord/nord-est
Visibilité 10 km ou plus
pas de nuages en-dessous de 1500 mètres et pas de cumulonimbus.
Evoluant progressivement
du 27 à 12 UTC au 27 à 15 UTC
Vent 8 kt de est

TAF: EDDT 270500Z 2706/2806 03003KT CAVOK BECMG 2712/2715 09008KT

Observations et prévisions météorologiques de plus de 4000 aéroports (messages METAR et TAF).

Les stations disponibles sont représentées par des disques jaunes et rouges sur la carte.

Passer la souris dessus pour voir le nom de la station.

Cliquer dessus pour voir les observations et prévisions météorologiques.

Pour changer de carte: cliquez sur les boutons verts avec une croix noire pour zoomer, sur le bouton vert avec un tiret pour effectuer un zoom arrière, ou sur les flèches vertes pour les cartes adjacentes.


METAR-TAF: